Time;durP1;ratioP1;P1;durP2;ratioP2;P2;SDS_P1;SDS_P2;PMS_P1;PMS_P2;Temp;Humidity;BMP_temperature;BMP_pressure;BME280_temperature;BME280_humidity;BME280_pressure;Samples;Min_cycle;Max_cycle;Signal;HPM_P1;HPM_P2
2023/10/25 00:01:35;;;;;;;;;;;9.20;99.90;;;;;;5007777;28;19920;-70
2023/10/25 00:04:01;;;;;;;;;;;9.10;99.90;;;;;;5008746;28;19925;-71
2023/10/25 00:06:27;;;;;;;;;;;9.10;99.90;;;;;;4995091;28;20363;-70
2023/10/25 00:08:53;;;;;;;;;;;9.10;99.90;;;;;;5027007;28;19921;-71
2023/10/25 00:11:19;;;;;;;;;;;9.10;99.90;;;;;;5022179;28;19931;-72
2023/10/25 00:13:45;;;;;;;;;;;9.10;99.90;;;;;;5033079;28;20040;-72
2023/10/25 00:16:13;;;;;;;;;;;9.10;99.90;;;;;;5028662;28;19928;-72
2023/10/25 00:18:39;;;;;;;;;;;9.00;99.90;;;;;;5037944;28;19925;-70
2023/10/25 00:21:04;;;;;;;;;;;9.00;99.90;;;;;;5003967;28;19964;-71
2023/10/25 00:23:30;;;;;;;;;;;9.10;99.90;;;;;;5014628;28;19935;-70
2023/10/25 00:25:56;;;;;;;;;;;9.00;99.90;;;;;;4994188;28;19998;-72
2023/10/25 00:28:22;;;;;;;;;;;9.00;99.90;;;;;;5039794;28;19931;-71
2023/10/25 00:30:48;;;;;;;;;;;8.90;99.90;;;;;;4994596;28;19974;-70
2023/10/25 00:33:14;;;;;;;;;;;9.00;99.90;;;;;;5020283;28;19963;-70
2023/10/25 00:35:40;;;;;;;;;;;8.90;99.90;;;;;;5012143;28;19931;-69
2023/10/25 00:38:06;;;;;;;;;;;8.90;99.90;;;;;;5035311;28;19921;-70
2023/10/25 00:40:32;;;;;;;;;;;8.90;99.90;;;;;;5011790;28;19925;-70
2023/10/25 00:43:22;;;;;;;;;;;8.90;99.90;;;;;;5032336;28;19932;-72
2023/10/25 00:45:54;;;;;;;;;;;8.90;99.90;;;;;;5004080;28;20400;-70
2023/10/25 00:48:20;;;;;;;;;;;8.80;99.90;;;;;;5004960;28;19925;-71
2023/10/25 00:50:46;;;;;;;;;;;8.80;99.90;;;;;;4998343;28;19931;-69
2023/10/25 00:53:12;;;;;;;;;;;8.80;99.90;;;;;;5038388;28;19932;-69
2023/10/25 00:55:38;;;;;;;;;;;8.90;99.90;;;;;;4989537;28;19922;-69
2023/10/25 00:58:04;;;;;;;;;;;8.80;99.90;;;;;;4998058;28;19921;-69
2023/10/25 01:00:30;;;;;;;;;;;8.80;99.90;;;;;;4987981;28;21536;-70
2023/10/25 01:02:56;;;;;;;;;;;8.70;99.90;;;;;;5011504;28;19949;-71
2023/10/25 01:05:22;;;;;;;;;;;8.70;99.90;;;;;;5019611;28;19928;-71
2023/10/25 01:07:48;;;;;;;;;;;8.70;99.90;;;;;;5062880;28;19925;-71
2023/10/25 01:10:14;;;;;;;;;;;8.70;99.90;;;;;;5002060;28;19936;-70
2023/10/25 01:12:40;;;;;;;;;;;8.70;99.90;;;;;;5023168;28;19939;-71
2023/10/25 01:15:06;;;;;;;;;;;8.70;99.90;;;;;;4997993;28;19928;-71
2023/10/25 01:17:32;;;;;;;;;;;8.70;99.90;;;;;;5030106;28;19929;-71
2023/10/25 01:19:58;;;;;;;;;;;8.70;99.90;;;;;;5002514;28;19925;-72
2023/10/25 01:22:24;;;;;;;;;;;8.70;99.90;;;;;;5051962;28;20362;-72
2023/10/25 01:24:50;;;;;;;;;;;8.70;99.90;;;;;;4995692;28;19925;-72
2023/10/25 01:27:16;;;;;;;;;;;8.60;99.90;;;;;;5052399;28;19935;-73
2023/10/25 01:29:42;;;;;;;;;;;8.60;99.90;;;;;;5024951;28;19935;-71
2023/10/25 01:32:08;;;;;;;;;;;8.60;99.90;;;;;;4974395;28;19994;-71
2023/10/25 01:34:34;;;;;;;;;;;8.60;99.90;;;;;;5004883;28;20036;-71
2023/10/25 01:36:59;;;;;;;;;;;8.60;99.90;;;;;;5020940;28;20429;-72
2023/10/25 01:39:25;;;;;;;;;;;8.60;99.90;;;;;;5026133;28;19921;-71
2023/10/25 01:41:51;;;;;;;;;;;8.60;99.90;;;;;;5031264;28;20300;-71
2023/10/25 01:44:17;;;;;;;;;;;8.60;99.90;;;;;;5023949;28;19928;-71
2023/10/25 01:46:43;;;;;;;;;;;8.60;99.90;;;;;;4975432;28;19940;-73
2023/10/25 01:49:09;;;;;;;;;;;8.60;99.90;;;;;;5003368;28;19932;-71
2023/10/25 01:51:35;;;;;;;;;;;8.60;99.90;;;;;;5003491;28;19931;-72
2023/10/25 01:54:01;;;;;;;;;;;8.60;99.90;;;;;;5054569;28;19927;-74
2023/10/25 01:56:26;;;;;;;;;;;8.50;99.90;;;;;;4990135;28;19939;-72
2023/10/25 01:58:52;;;;;;;;;;;8.50;99.90;;;;;;5025475;28;20285;-72
2023/10/25 02:01:18;;;;;;;;;;;8.50;99.90;;;;;;4995149;28;19920;-72
2023/10/25 02:03:44;;;;;;;;;;;8.50;99.90;;;;;;5012687;28;19925;-72
2023/10/25 02:06:13;;;;;;;;;;;8.50;99.90;;;;;;5010789;28;19933;-72
2023/10/25 02:08:39;;;;;;;;;;;8.50;99.90;;;;;;5034918;28;19933;-73
2023/10/25 02:11:05;;;;;;;;;;;8.50;99.90;;;;;;5032347;28;20426;-73
2023/10/25 02:13:31;;;;;;;;;;;8.40;99.90;;;;;;5028393;28;19929;-74
2023/10/25 02:15:57;;;;;;;;;;;8.40;99.90;;;;;;5007590;28;19990;-73
2023/10/25 02:18:23;;;;;;;;;;;8.50;99.90;;;;;;5011264;28;19932;-73
2023/10/25 02:20:49;;;;;;;;;;;8.40;99.90;;;;;;5000153;28;19924;-73
2023/10/25 02:23:15;;;;;;;;;;;8.40;99.90;;;;;;5036310;28;19925;-72
2023/10/25 02:25:41;;;;;;;;;;;8.40;99.90;;;;;;5009112;28;19928;-73
2023/10/25 02:28:08;;;;;;;;;;;8.40;99.90;;;;;;5037721;28;19924;-72
2023/10/25 02:30:35;;;;;;;;;;;8.40;99.90;;;;;;5003652;28;19940;-73
2023/10/25 02:33:01;;;;;;;;;;;8.40;99.90;;;;;;5033302;28;19925;-73
2023/10/25 02:35:27;;;;;;;;;;;8.30;99.90;;;;;;5027081;28;19925;-72
2023/10/25 02:37:53;;;;;;;;;;;8.30;99.90;;;;;;5038554;28;19929;-72
2023/10/25 02:40:19;;;;;;;;;;;8.30;99.90;;;;;;4998383;28;19994;-74
2023/10/25 02:42:47;;;;;;;;;;;8.30;99.90;;;;;;5021341;28;19929;-72
2023/10/25 02:45:13;;;;;;;;;;;8.30;99.90;;;;;;4990198;28;19931;-75
2023/10/25 02:47:39;;;;;;;;;;;8.30;99.90;;;;;;5055175;28;19929;-72
2023/10/25 02:50:05;;;;;;;;;;;8.20;99.90;;;;;;4999410;28;19924;-73
2023/10/25 02:52:31;;;;;;;;;;;8.30;99.90;;;;;;5034762;28;20335;-72
2023/10/25 02:54:57;;;;;;;;;;;8.30;99.90;;;;;;4991995;28;19921;-72
2023/10/25 02:57:23;;;;;;;;;;;8.30;99.90;;;;;;5066352;28;19931;-71
2023/10/25 02:59:51;;;;;;;;;;;8.30;99.90;;;;;;5003622;28;19931;-71
2023/10/25 03:02:17;;;;;;;;;;;8.20;99.90;;;;;;5032469;28;19929;-72
2023/10/25 03:04:43;;;;;;;;;;;8.20;99.90;;;;;;5004704;28;20304;-72
2023/10/25 03:07:09;;;;;;;;;;;8.30;99.90;;;;;;5012696;28;19930;-72
2023/10/25 03:09:35;;;;;;;;;;;8.30;99.90;;;;;;5025282;28;19929;-73
2023/10/25 03:12:01;;;;;;;;;;;8.20;99.90;;;;;;4991124;28;19929;-73
2023/10/25 03:14:27;;;;;;;;;;;8.20;99.90;;;;;;5018639;28;19922;-72
2023/10/25 03:16:53;;;;;;;;;;;8.30;99.90;;;;;;4995350;28;20322;-73
2023/10/25 03:19:18;;;;;;;;;;;8.20;99.90;;;;;;5023883;28;19925;-72
2023/10/25 03:21:44;;;;;;;;;;;8.20;99.90;;;;;;5023907;28;19920;-72
2023/10/25 03:24:10;;;;;;;;;;;8.20;99.90;;;;;;5026143;28;20430;-72
2023/10/25 03:26:36;;;;;;;;;;;8.30;99.90;;;;;;5026776;28;19939;-71
2023/10/25 03:29:02;;;;;;;;;;;8.20;99.90;;;;;;5027183;28;20422;-73
2023/10/25 03:31:28;;;;;;;;;;;8.20;99.90;;;;;;5014514;28;19928;-73
2023/10/25 03:33:54;;;;;;;;;;;8.20;99.90;;;;;;5009620;28;20426;-73
2023/10/25 03:36:20;;;;;;;;;;;8.20;99.90;;;;;;5000478;28;19924;-73
2023/10/25 03:38:46;;;;;;;;;;;8.10;99.90;;;;;;5033423;28;19921;-73
2023/10/25 03:41:12;;;;;;;;;;;8.10;99.90;;;;;;5022083;28;19928;-73
2023/10/25 03:43:38;;;;;;;;;;;8.10;99.90;;;;;;5035260;28;19929;-73
2023/10/25 03:46:07;;;;;;;;;;;8.10;99.90;;;;;;4991958;28;19936;-72
2023/10/25 03:48:35;;;;;;;;;;;8.10;99.90;;;;;;5027493;28;19925;-73
2023/10/25 03:51:02;;;;;;;;;;;8.10;99.90;;;;;;5007188;28;19924;-73
2023/10/25 03:53:28;;;;;;;;;;;8.00;99.90;;;;;;5020015;28;20706;-71
2023/10/25 03:55:56;;;;;;;;;;;8.10;99.90;;;;;;5004197;28;20414;-73
2023/10/25 03:58:23;;;;;;;;;;;8.00;99.90;;;;;;5030982;28;19936;-72
2023/10/25 04:00:55;;;;;;;;;;;8.00;99.90;;;;;;5021928;28;19932;-72
2023/10/25 04:03:21;;;;;;;;;;;8.00;99.90;;;;;;5035404;28;20209;-72
2023/10/25 04:05:47;;;;;;;;;;;8.00;99.90;;;;;;5011763;28;20407;-73
2023/10/25 04:08:14;;;;;;;;;;;7.90;99.90;;;;;;5018772;28;20323;-73
2023/10/25 04:10:40;;;;;;;;;;;7.90;99.90;;;;;;5005353;28;20000;-72
2023/10/25 04:13:06;;;;;;;;;;;8.00;99.90;;;;;;5043385;28;19963;-74
2023/10/25 04:15:35;;;;;;;;;;;7.90;99.90;;;;;;5010161;28;19964;-73
2023/10/25 04:18:01;;;;;;;;;;;7.90;99.90;;;;;;5044764;28;19929;-74
2023/10/25 04:20:30;;;;;;;;;;;7.90;99.90;;;;;;5007966;28;19929;-73
2023/10/25 04:22:57;;;;;;;;;;;7.80;99.90;;;;;;5033620;28;19928;-71
2023/10/25 04:25:22;;;;;;;;;;;7.90;99.90;;;;;;5002353;28;20879;-72
2023/10/25 04:27:48;;;;;;;;;;;7.80;99.90;;;;;;5034882;28;19929;-72
2023/10/25 04:30:14;;;;;;;;;;;7.80;99.90;;;;;;5005028;28;19920;-73
2023/10/25 04:32:40;;;;;;;;;;;7.90;99.90;;;;;;5046648;28;19939;-73
2023/10/25 04:35:06;;;;;;;;;;;7.80;99.90;;;;;;5003867;28;19929;-71
2023/10/25 04:37:33;;;;;;;;;;;7.80;99.90;;;;;;5021241;28;19925;-72
2023/10/25 04:39:58;;;;;;;;;;;7.80;99.90;;;;;;4997967;28;19932;-73
2023/10/25 04:42:24;;;;;;;;;;;7.80;99.90;;;;;;5052632;28;19925;-73
2023/10/25 04:44:50;;;;;;;;;;;7.80;99.90;;;;;;4998777;28;19925;-72
2023/10/25 04:47:17;;;;;;;;;;;7.80;99.90;;;;;;5032944;28;19929;-73
2023/10/25 04:49:43;;;;;;;;;;;7.70;99.90;;;;;;5022325;28;19928;-72
2023/10/25 04:52:09;;;;;;;;;;;7.80;99.90;;;;;;5011748;28;19926;-72
2023/10/25 04:54:35;;;;;;;;;;;7.80;99.90;;;;;;5004578;28;19929;-73
2023/10/25 04:57:00;;;;;;;;;;;7.80;99.90;;;;;;5012902;28;19925;-73
2023/10/25 04:59:27;;;;;;;;;;;7.80;99.90;;;;;;5024555;28;19943;-73
2023/10/25 05:01:53;;;;;;;;;;;7.80;99.90;;;;;;5047532;28;19947;-73
2023/10/25 05:04:19;;;;;;;;;;;7.80;99.90;;;;;;5021838;28;20388;-73
2023/10/25 05:06:46;;;;;;;;;;;7.70;99.90;;;;;;4996912;28;19929;-71
2023/10/25 05:09:12;;;;;;;;;;;7.70;99.90;;;;;;5005310;28;19922;-73
2023/10/25 05:11:38;;;;;;;;;;;7.70;99.90;;;;;;5004119;28;19931;-72
2023/10/25 05:14:04;;;;;;;;;;;7.70;99.90;;;;;;5006571;28;19921;-72
2023/10/25 05:16:30;;;;;;;;;;;7.70;99.90;;;;;;5003486;28;19935;-72
2023/10/25 05:18:56;;;;;;;;;;;7.70;99.90;;;;;;5006595;28;19928;-73
2023/10/25 05:21:24;;;;;;;;;;;7.70;99.90;;;;;;4995193;28;19936;-72
2023/10/25 05:23:50;;;;;;;;;;;7.60;99.90;;;;;;5009085;28;19930;-72
2023/10/25 05:26:16;;;;;;;;;;;7.60;99.90;;;;;;4991883;28;19943;-72
2023/10/25 05:28:42;;;;;;;;;;;7.60;99.90;;;;;;5015034;28;19932;-72
2023/10/25 05:31:10;;;;;;;;;;;7.60;99.90;;;;;;4998508;28;19986;-72
2023/10/25 05:33:36;;;;;;;;;;;7.50;99.90;;;;;;5034135;28;20005;-73
2023/10/25 05:36:02;;;;;;;;;;;7.50;99.90;;;;;;5021115;28;19955;-73
2023/10/25 05:38:29;;;;;;;;;;;7.50;99.90;;;;;;5020301;28;20013;-72
2023/10/25 05:40:55;;;;;;;;;;;7.40;99.90;;;;;;4978644;28;19936;-73
2023/10/25 05:43:27;;;;;;;;;;;7.40;99.90;;;;;;5011574;28;19928;-72
2023/10/25 05:45:53;;;;;;;;;;;7.40;99.90;;;;;;4993472;28;19947;-72
2023/10/25 05:48:19;;;;;;;;;;;7.40;99.90;;;;;;5005280;28;19928;-72
2023/10/25 05:50:47;;;;;;;;;;;7.40;99.90;;;;;;5006560;28;19968;-72
2023/10/25 05:53:13;;;;;;;;;;;7.40;99.90;;;;;;5014439;28;19925;-72
2023/10/25 05:55:39;;;;;;;;;;;7.30;99.90;;;;;;4970155;28;19925;-72
2023/10/25 05:58:05;;;;;;;;;;;7.30;99.90;;;;;;5033779;28;19948;-73
2023/10/25 06:00:31;;;;;;;;;;;7.30;99.90;;;;;;5008902;28;20529;-72
2023/10/25 06:02:59;;;;;;;;;;;7.40;99.90;;;;;;5042075;28;19966;-72
2023/10/25 06:05:25;;;;;;;;;;;7.40;99.90;;;;;;5007961;28;19999;-71
2023/10/25 06:07:51;;;;;;;;;;;7.40;99.90;;;;;;5045119;28;19929;-73
2023/10/25 06:10:17;;;;;;;;;;;7.50;99.90;;;;;;4993324;28;19932;-71
2023/10/25 06:12:43;;;;;;;;;;;7.50;99.90;;;;;;5024732;28;19932;-73
2023/10/25 06:15:09;;;;;;;;;;;7.40;99.90;;;;;;4988233;28;19929;-73
2023/10/25 06:17:35;;;;;;;;;;;7.50;99.90;;;;;;5046627;28;20482;-73
2023/10/25 06:20:01;;;;;;;;;;;7.40;99.90;;;;;;4999353;28;19932;-73
2023/10/25 06:22:27;;;;;;;;;;;7.50;99.90;;;;;;5035749;28;20464;-73
2023/10/25 06:24:53;;;;;;;;;;;7.40;99.90;;;;;;5005907;28;20423;-73
2023/10/25 06:27:22;;;;;;;;;;;7.40;99.90;;;;;;5012621;28;19934;-74
2023/10/25 06:29:48;;;;;;;;;;;7.40;99.90;;;;;;4982522;28;19933;-72
2023/10/25 06:32:14;;;;;;;;;;;7.30;99.90;;;;;;5029957;28;19921;-74
2023/10/25 06:34:40;;;;;;;;;;;7.40;99.90;;;;;;5051563;28;19928;-73
2023/10/25 06:37:06;;;;;;;;;;;7.40;99.90;;;;;;5019746;28;19927;-73
2023/10/25 06:39:32;;;;;;;;;;;7.40;99.90;;;;;;5024453;28;19929;-73
2023/10/25 06:41:58;;;;;;;;;;;7.30;99.90;;;;;;5011161;28;19932;-73
2023/10/25 06:44:25;;;;;;;;;;;7.30;99.90;;;;;;5021884;28;20289;-73
2023/10/25 06:46:51;;;;;;;;;;;7.30;99.90;;;;;;5027213;28;19924;-72
2023/10/25 06:49:17;;;;;;;;;;;7.30;99.90;;;;;;5023465;28;19932;-74
2023/10/25 06:51:43;;;;;;;;;;;7.30;99.90;;;;;;5012411;28;19931;-72
2023/10/25 06:54:10;;;;;;;;;;;7.20;99.90;;;;;;5026940;28;19921;-72
2023/10/25 06:56:36;;;;;;;;;;;7.30;99.90;;;;;;5025890;28;19946;-73
2023/10/25 06:59:02;;;;;;;;;;;7.30;99.90;;;;;;5021606;28;19936;-72
2023/10/25 07:01:31;;;;;;;;;;;7.30;99.90;;;;;;5024361;28;19935;-72
2023/10/25 07:03:58;;;;;;;;;;;7.20;99.90;;;;;;5027695;28;19940;-73
2023/10/25 07:06:24;;;;;;;;;;;7.30;99.90;;;;;;5004707;28;19979;-73
2023/10/25 07:08:50;;;;;;;;;;;7.20;99.90;;;;;;5020813;28;20354;-73
2023/10/25 07:11:16;;;;;;;;;;;7.30;99.90;;;;;;5020026;28;19927;-73
2023/10/25 07:13:42;;;;;;;;;;;7.20;99.90;;;;;;5029440;28;19929;-71
2023/10/25 07:16:08;;;;;;;;;;;7.20;99.90;;;;;;5015895;28;19920;-73
2023/10/25 07:18:34;;;;;;;;;;;7.30;99.90;;;;;;5027375;28;19927;-72
2023/10/25 07:21:00;;;;;;;;;;;7.30;99.90;;;;;;5009603;28;19928;-73
2023/10/25 07:23:27;;;;;;;;;;;7.30;99.90;;;;;;5037907;28;19929;-72
2023/10/25 07:25:56;;;;;;;;;;;7.30;99.90;;;;;;5004717;28;19990;-73
2023/10/25 07:28:21;;;;;;;;;;;7.30;99.90;;;;;;5019042;28;19926;-72
2023/10/25 07:30:48;;;;;;;;;;;7.40;99.90;;;;;;4987416;28;19994;-73
2023/10/25 07:33:14;;;;;;;;;;;7.40;99.90;;;;;;5017905;28;20293;-73
2023/10/25 07:35:41;;;;;;;;;;;7.40;99.90;;;;;;4993634;28;19931;-73
2023/10/25 07:38:07;;;;;;;;;;;7.50;99.90;;;;;;5037998;28;19932;-73
2023/10/25 07:40:33;;;;;;;;;;;7.50;99.90;;;;;;5002305;28;19921;-72
2023/10/25 07:42:59;;;;;;;;;;;7.60;99.90;;;;;;5010041;28;19936;-74
2023/10/25 07:45:25;;;;;;;;;;;7.60;99.90;;;;;;4977705;28;20973;-74
2023/10/25 07:47:51;;;;;;;;;;;7.70;99.90;;;;;;5019868;28;19937;-74
2023/10/25 07:50:19;;;;;;;;;;;7.70;99.90;;;;;;5011017;28;19928;-73
2023/10/25 07:52:45;;;;;;;;;;;7.80;99.90;;;;;;5045196;28;19925;-74
2023/10/25 07:55:11;;;;;;;;;;;7.80;99.90;;;;;;4994982;28;19939;-72
2023/10/25 07:57:37;;;;;;;;;;;7.90;99.90;;;;;;5025880;28;19925;-74
2023/10/25 08:00:04;;;;;;;;;;;7.90;99.90;;;;;;5015149;28;19933;-74
2023/10/25 08:02:30;;;;;;;;;;;8.00;99.90;;;;;;5044858;28;19931;-74
2023/10/25 08:04:55;;;;;;;;;;;8.00;99.90;;;;;;4992437;28;19929;-75
2023/10/25 08:07:23;;;;;;;;;;;8.10;99.90;;;;;;5028674;28;19930;-74
2023/10/25 08:09:49;;;;;;;;;;;8.10;99.90;;;;;;4976998;28;20064;-74
2023/10/25 08:12:15;;;;;;;;;;;8.20;99.90;;;;;;5056806;28;20537;-73
2023/10/25 08:14:41;;;;;;;;;;;8.30;99.90;;;;;;5024233;28;19925;-73
2023/10/25 08:17:07;;;;;;;;;;;8.40;99.90;;;;;;5041805;28;20390;-74
2023/10/25 08:19:32;;;;;;;;;;;8.40;99.90;;;;;;5024414;28;19921;-73
2023/10/25 08:21:59;;;;;;;;;;;8.40;99.90;;;;;;5004786;28;19921;-75
2023/10/25 08:24:25;;;;;;;;;;;8.50;99.90;;;;;;5003899;28;19925;-73
2023/10/25 08:26:52;;;;;;;;;;;8.60;99.90;;;;;;5019672;28;19929;-73
2023/10/25 08:29:18;;;;;;;;;;;8.70;99.90;;;;;;5039743;28;19921;-75
2023/10/25 08:31:46;;;;;;;;;;;8.70;99.90;;;;;;4999820;28;19928;-76
2023/10/25 08:34:12;;;;;;;;;;;8.80;99.90;;;;;;5039513;28;19932;-75
2023/10/25 08:36:38;;;;;;;;;;;8.80;99.90;;;;;;5031625;28;19920;-74
2023/10/25 08:39:04;;;;;;;;;;;8.90;99.90;;;;;;5029642;28;19936;-74
2023/10/25 08:41:30;;;;;;;;;;;9.00;99.90;;;;;;5006398;28;19929;-75
2023/10/25 08:43:58;;;;;;;;;;;9.10;99.90;;;;;;5029089;28;19925;-74
2023/10/25 08:46:24;;;;;;;;;;;9.20;99.90;;;;;;5005957;28;20265;-74
2023/10/25 08:48:52;;;;;;;;;;;9.30;99.90;;;;;;5006777;28;20385;-74
2023/10/25 08:51:18;;;;;;;;;;;9.30;99.90;;;;;;5002997;28;20320;-75
2023/10/25 08:53:45;;;;;;;;;;;9.40;99.90;;;;;;4999620;28;19925;-75
2023/10/25 08:56:11;;;;;;;;;;;9.40;99.90;;;;;;5000574;28;19925;-74
2023/10/25 08:58:37;;;;;;;;;;;9.50;99.90;;;;;;5033510;28;19932;-74
2023/10/25 09:01:03;;;;;;;;;;;9.50;99.90;;;;;;4987474;28;19931;-75
2023/10/25 09:03:32;;;;;;;;;;;9.60;99.90;;;;;;5026817;28;19936;-75
2023/10/25 09:06:02;;;;;;;;;;;9.60;99.90;;;;;;5000228;28;19928;-74
2023/10/25 09:08:28;;;;;;;;;;;9.60;99.90;;;;;;5005530;28;20027;-74
2023/10/25 09:10:55;;;;;;;;;;;9.80;99.90;;;;;;4989897;28;19928;-74
2023/10/25 09:13:21;;;;;;;;;;;9.80;99.90;;;;;;5037113;28;19925;-75
2023/10/25 09:15:47;;;;;;;;;;;9.80;99.90;;;;;;5004500;28;21074;-77
2023/10/25 09:18:13;;;;;;;;;;;9.80;99.90;;;;;;5004981;28;19930;-75
2023/10/25 09:20:38;;;;;;;;;;;9.90;99.90;;;;;;5011289;28;19958;-74
2023/10/25 09:23:08;;;;;;;;;;;10.00;99.90;;;;;;5020810;28;19928;-74
2023/10/25 09:25:34;;;;;;;;;;;10.00;99.90;;;;;;4996067;28;19935;-73
2023/10/25 09:28:00;;;;;;;;;;;10.10;99.90;;;;;;5015822;28;19933;-74
2023/10/25 09:30:28;;;;;;;;;;;10.20;99.90;;;;;;4980390;28;19925;-74
2023/10/25 09:32:54;;;;;;;;;;;10.40;99.90;;;;;;5026168;28;20423;-74
2023/10/25 09:35:20;;;;;;;;;;;10.40;99.90;;;;;;4987431;28;19932;-74
2023/10/25 09:37:46;;;;;;;;;;;10.50;99.90;;;;;;5051713;28;19957;-73
2023/10/25 09:40:13;;;;;;;;;;;10.60;99.90;;;;;;4990478;28;19931;-74
2023/10/25 09:42:45;;;;;;;;;;;10.80;99.90;;;;;;5023009;28;19932;-75
2023/10/25 09:45:12;;;;;;;;;;;10.90;99.90;;;;;;4980600;28;19933;-75
2023/10/25 09:47:41;;;;;;;;;;;11.10;99.90;;;;;;5049811;28;19929;-73
2023/10/25 09:50:14;;;;;;;;;;;11.30;99.90;;;;;;4996516;28;19940;-75
2023/10/25 09:52:40;;;;;;;;;;;11.40;99.90;;;;;;5044008;28;19929;-74
2023/10/25 09:55:20;;;;;;;;;;;11.50;99.90;;;;;;4996960;28;19925;-74
2023/10/25 09:57:47;;;;;;;;;;;11.70;99.90;;;;;;5027875;28;19932;-73
2023/10/25 10:00:14;;;;;;;;;;;11.80;99.90;;;;;;4981691;28;20331;-75
2023/10/25 10:02:53;;;;;;;;;;;11.90;99.90;;;;;;5034658;28;19929;-74
2023/10/25 10:05:22;;;;;;;;;;;12.10;99.90;;;;;;4998710;28;19921;-73
2023/10/25 10:07:57;;;;;;;;;;;12.20;99.90;;;;;;5034558;28;19929;-75
2023/10/25 10:10:28;;;;;;;;;;;12.40;99.90;;;;;;5004255;28;19978;-73
2023/10/25 10:12:53;;;;;;;;;;;12.50;99.90;;;;;;5043393;28;19932;-73
2023/10/25 10:15:24;;;;;;;;;;;12.70;99.90;;;;;;5028355;28;19925;-72
2023/10/25 10:17:50;;;;;;;;;;;12.80;99.90;;;;;;5041880;28;19921;-74
2023/10/25 10:20:23;;;;;;;;;;;12.90;99.90;;;;;;4989336;28;20410;-73
2023/10/25 10:23:02;;;;;;;;;;;13.00;99.90;;;;;;4992050;28;19933;-72
2023/10/25 10:25:44;;;;;;;;;;;13.10;99.90;;;;;;4981552;28;19925;-72
2023/10/25 10:28:10;;;;;;;;;;;13.10;99.90;;;;;;5009837;28;19929;-73
2023/10/25 10:30:39;;;;;;;;;;;13.30;99.90;;;;;;4988629;28;19928;-74
2023/10/25 10:33:13;;;;;;;;;;;13.30;99.90;;;;;;5039083;28;19936;-72
2023/10/25 10:35:48;;;;;;;;;;;13.40;99.90;;;;;;5000286;28;19921;-73
2023/10/25 10:38:15;;;;;;;;;;;13.50;99.90;;;;;;5037970;28;19932;-73
2023/10/25 10:40:40;;;;;;;;;;;13.50;99.90;;;;;;4998011;28;19928;-73
2023/10/25 10:43:07;;;;;;;;;;;13.50;99.90;;;;;;5022369;28;19928;-72
2023/10/25 10:45:33;;;;;;;;;;;13.60;99.90;;;;;;4984736;28;20145;-73
2023/10/25 10:48:15;;;;;;;;;;;13.60;99.90;;;;;;5042537;28;20442;-73
2023/10/25 10:50:41;;;;;;;;;;;13.60;99.90;;;;;;4996944;28;19925;-72
2023/10/25 10:53:06;;;;;;;;;;;13.50;99.90;;;;;;5007289;28;19980;-73
2023/10/25 10:55:32;;;;;;;;;;;13.60;99.90;;;;;;4987551;28;19970;-72
2023/10/25 10:57:58;;;;;;;;;;;13.50;99.90;;;;;;5039340;28;19921;-72
2023/10/25 11:00:25;;;;;;;;;;;13.50;99.90;;;;;;4997310;28;19925;-72
2023/10/25 11:02:53;;;;;;;;;;;13.50;99.90;;;;;;4999309;28;19925;-71
2023/10/25 11:05:25;;;;;;;;;;;13.50;99.90;;;;;;4980167;28;19925;-72
2023/10/25 11:07:51;;;;;;;;;;;13.60;99.90;;;;;;5013639;28;19937;-74
2023/10/25 11:10:18;;;;;;;;;;;13.60;99.90;;;;;;4978682;28;19931;-73
2023/10/25 11:12:44;;;;;;;;;;;13.60;99.90;;;;;;5035540;28;19925;-72
2023/10/25 11:15:11;;;;;;;;;;;13.50;99.90;;;;;;4975557;28;19941;-72
2023/10/25 11:17:37;;;;;;;;;;;13.30;99.90;;;;;;5005805;28;19925;-72
2023/10/25 11:20:04;;;;;;;;;;;13.30;99.90;;;;;;4974321;28;20391;-72
2023/10/25 11:22:31;;;;;;;;;;;13.20;99.90;;;;;;5047068;28;19925;-72
2023/10/25 11:24:57;;;;;;;;;;;13.10;99.90;;;;;;4989088;28;19932;-71
2023/10/25 11:27:30;;;;;;;;;;;13.20;99.90;;;;;;5049088;28;19925;-71
2023/10/25 11:29:56;;;;;;;;;;;13.20;99.90;;;;;;5004222;28;19931;-71
2023/10/25 11:32:22;;;;;;;;;;;13.10;99.90;;;;;;5036390;28;20324;-72
2023/10/25 11:34:52;;;;;;;;;;;13.00;99.90;;;;;;5026303;28;20031;-71
2023/10/25 11:37:19;;;;;;;;;;;13.00;99.90;;;;;;5009334;28;19929;-72
2023/10/25 11:39:54;;;;;;;;;;;12.80;99.90;;;;;;5024346;28;19925;-72
2023/10/25 11:42:20;;;;;;;;;;;12.70;99.90;;;;;;4969734;28;19954;-71
2023/10/25 11:44:46;;;;;;;;;;;12.70;99.90;;;;;;5003991;28;20404;-71
2023/10/25 11:47:16;;;;;;;;;;;12.60;99.90;;;;;;4975561;28;19929;-72
2023/10/25 11:49:42;;;;;;;;;;;12.60;99.90;;;;;;5006606;28;19937;-71
2023/10/25 11:52:08;;;;;;;;;;;12.60;99.90;;;;;;5007397;28;19929;-71
2023/10/25 11:54:34;;;;;;;;;;;12.50;99.90;;;;;;5007881;28;19921;-73
2023/10/25 11:57:00;;;;;;;;;;;12.50;99.90;;;;;;5008768;28;19921;-71
2023/10/25 11:59:25;;;;;;;;;;;12.50;99.90;;;;;;5006312;28;20535;-72
2023/10/25 12:01:52;;;;;;;;;;;12.50;99.90;;;;;;5011526;28;19931;-71
2023/10/25 12:04:17;;;;;;;;;;;12.40;99.90;;;;;;5008512;28;19953;-71
2023/10/25 12:06:43;;;;;;;;;;;12.50;99.90;;;;;;5009186;28;20908;-71
2023/10/25 12:09:09;;;;;;;;;;;12.40;99.90;;;;;;5013893;28;19930;-71
2023/10/25 12:11:35;;;;;;;;;;;12.30;99.90;;;;;;5005527;28;20019;-71
2023/10/25 12:14:01;;;;;;;;;;;12.30;99.90;;;;;;5012728;28;19925;-70
2023/10/25 12:16:27;;;;;;;;;;;12.20;99.90;;;;;;5015411;28;20392;-71
2023/10/25 12:18:53;;;;;;;;;;;12.20;99.90;;;;;;5034330;28;19925;-72
2023/10/25 12:21:19;;;;;;;;;;;12.20;99.90;;;;;;5001322;28;19920;-72
2023/10/25 12:23:45;;;;;;;;;;;12.20;99.90;;;;;;5023168;28;19935;-73
2023/10/25 12:26:11;;;;;;;;;;;12.20;99.90;;;;;;5018623;28;19929;-72
2023/10/25 12:28:37;;;;;;;;;;;12.10;99.90;;;;;;5024650;28;20604;-73
2023/10/25 12:31:03;;;;;;;;;;;12.10;99.90;;;;;;5008973;28;19928;-71
2023/10/25 12:33:28;;;;;;;;;;;12.10;99.90;;;;;;5029877;28;19951;-72
2023/10/25 12:35:54;;;;;;;;;;;12.10;99.90;;;;;;5005061;28;19931;-71
2023/10/25 12:38:20;;;;;;;;;;;12.10;99.90;;;;;;5038007;28;19926;-71
2023/10/25 12:40:47;;;;;;;;;;;12.00;99.90;;;;;;5009652;28;19924;-72
2023/10/25 12:43:13;;;;;;;;;;;12.00;99.90;;;;;;5041291;28;19925;-72
2023/10/25 12:45:39;;;;;;;;;;;12.00;99.90;;;;;;5006472;28;20432;-72
2023/10/25 12:48:04;;;;;;;;;;;12.00;99.90;;;;;;5021272;28;19926;-73
2023/10/25 12:50:31;;;;;;;;;;;11.90;99.90;;;;;;5004306;28;20391;-71
2023/10/25 12:52:56;;;;;;;;;;;11.80;99.90;;;;;;5025242;28;19922;-72
2023/10/25 12:55:23;;;;;;;;;;;11.80;99.90;;;;;;4981056;28;19944;-72
2023/10/25 12:57:49;;;;;;;;;;;11.60;99.90;;;;;;5011554;28;19926;-73
2023/10/25 13:00:15;;;;;;;;;;;11.60;99.90;;;;;;4984659;28;20491;-74
2023/10/25 13:02:41;;;;;;;;;;;11.50;99.90;;;;;;5025769;28;19924;-74
2023/10/25 13:05:07;;;;;;;;;;;11.50;99.90;;;;;;4983406;28;20422;-73
2023/10/25 13:07:33;;;;;;;;;;;11.40;99.90;;;;;;5002884;28;19937;-72
2023/10/25 13:09:59;;;;;;;;;;;11.40;99.90;;;;;;4980732;28;19925;-73
2023/10/25 13:12:28;;;;;;;;;;;11.40;99.90;;;;;;5004399;28;20281;-72
2023/10/25 13:14:54;;;;;;;;;;;11.40;99.90;;;;;;4989263;28;19922;-73
2023/10/25 13:17:20;;;;;;;;;;;11.40;99.90;;;;;;5028791;28;19952;-73
2023/10/25 13:19:46;;;;;;;;;;;11.40;99.90;;;;;;5028749;28;19967;-72
2023/10/25 13:22:14;;;;;;;;;;;11.30;99.90;;;;;;5009754;28;20403;-72
2023/10/25 13:24:39;;;;;;;;;;;11.30;99.90;;;;;;5009059;28;20320;-73
2023/10/25 13:27:05;;;;;;;;;;;11.30;99.90;;;;;;4994251;28;19929;-73
2023/10/25 13:29:31;;;;;;;;;;;11.30;99.90;;;;;;5007706;28;19937;-71
2023/10/25 13:31:57;;;;;;;;;;;11.30;99.90;;;;;;4994719;28;19924;-73
2023/10/25 13:34:23;;;;;;;;;;;11.20;99.90;;;;;;5056580;28;19929;-72
2023/10/25 13:36:50;;;;;;;;;;;11.20;99.90;;;;;;4995901;28;19931;-73
2023/10/25 13:39:16;;;;;;;;;;;11.20;99.90;;;;;;5021714;28;19925;-73
2023/10/25 13:41:42;;;;;;;;;;;11.20;99.90;;;;;;5025288;28;19943;-71
2023/10/25 13:44:08;;;;;;;;;;;11.20;99.90;;;;;;5028955;28;20375;-72
2023/10/25 13:46:34;;;;;;;;;;;11.20;99.90;;;;;;5011333;28;20327;-72
2023/10/25 13:49:00;;;;;;;;;;;11.10;99.90;;;;;;5017350;28;19936;-72
2023/10/25 13:51:26;;;;;;;;;;;11.20;99.90;;;;;;5003201;28;19932;-73
2023/10/25 13:53:52;;;;;;;;;;;11.10;99.90;;;;;;5007152;28;19921;-72
2023/10/25 13:56:19;;;;;;;;;;;11.10;99.90;;;;;;4992827;28;19925;-73
2023/10/25 13:58:45;;;;;;;;;;;11.10;99.90;;;;;;5013340;28;19922;-72
2023/10/25 14:01:11;;;;;;;;;;;11.10;99.90;;;;;;5001875;28;19921;-72
2023/10/25 14:03:37;;;;;;;;;;;11.10;99.90;;;;;;4997904;28;19929;-72
2023/10/25 14:06:04;;;;;;;;;;;11.10;99.90;;;;;;5004229;28;19927;-72
2023/10/25 14:08:33;;;;;;;;;;;11.10;99.90;;;;;;5035264;28;19928;-72
2023/10/25 14:10:59;;;;;;;;;;;11.10;99.90;;;;;;5009227;28;19932;-70
2023/10/25 14:13:25;;;;;;;;;;;11.10;99.90;;;;;;5023410;28;19925;-72
2023/10/25 14:15:53;;;;;;;;;;;11.10;99.90;;;;;;4996070;28;20441;-72
2023/10/25 14:18:19;;;;;;;;;;;11.10;99.90;;;;;;5027542;28;20296;-73
2023/10/25 14:20:45;;;;;;;;;;;11.10;99.90;;;;;;5006511;28;19920;-72
2023/10/25 14:23:11;;;;;;;;;;;11.10;99.90;;;;;;5039895;28;19925;-72